sensor_id;sensor_type;location;lat;lon;timestamp;temperature;humidity
8436;DHT22;4255;48.730;9.156;2023-04-26T00:01:47;8.70;92.10
8436;DHT22;4255;48.730;9.156;2023-04-26T00:04:13;8.80;92.60
8436;DHT22;4255;48.730;9.156;2023-04-26T00:06:38;8.90;80.40
8436;DHT22;4255;48.730;9.156;2023-04-26T00:09:04;8.80;73.40
8436;DHT22;4255;48.730;9.156;2023-04-26T00:11:31;8.90;69.00
8436;DHT22;4255;48.730;9.156;2023-04-26T00:13:57;8.80;46.90
8436;DHT22;4255;48.730;9.156;2023-04-26T00:16:23;8.60;54.40
8436;DHT22;4255;48.730;9.156;2023-04-26T00:18:49;8.50;60.50
8436;DHT22;4255;48.730;9.156;2023-04-26T00:21:15;8.60;70.20
8436;DHT22;4255;48.730;9.156;2023-04-26T00:23:41;8.50;88.00
8436;DHT22;4255;48.730;9.156;2023-04-26T00:26:07;8.20;63.00
8436;DHT22;4255;48.730;9.156;2023-04-26T00:28:33;8.10;62.80
8436;DHT22;4255;48.730;9.156;2023-04-26T00:30:59;8.00;66.90
8436;DHT22;4255;48.730;9.156;2023-04-26T00:33:24;7.90;37.40
8436;DHT22;4255;48.730;9.156;2023-04-26T00:35:50;7.80;45.60
8436;DHT22;4255;48.730;9.156;2023-04-26T00:38:16;7.80;32.90
8436;DHT22;4255;48.730;9.156;2023-04-26T00:40:42;7.70;38.20
8436;DHT22;4255;48.730;9.156;2023-04-26T00:43:07;7.90;40.00
8436;DHT22;4255;48.730;9.156;2023-04-26T00:45:33;8.10;48.60
8436;DHT22;4255;48.730;9.156;2023-04-26T00:48:00;8.20;47.90
8436;DHT22;4255;48.730;9.156;2023-04-26T00:50:27;8.20;54.00
8436;DHT22;4255;48.730;9.156;2023-04-26T00:52:53;8.10;48.70
8436;DHT22;4255;48.730;9.156;2023-04-26T00:55:21;8.10;54.20
8436;DHT22;4255;48.730;9.156;2023-04-26T00:57:47;8.00;48.60
8436;DHT22;4255;48.730;9.156;2023-04-26T01:00:13;8.00;59.70
8436;DHT22;4255;48.730;9.156;2023-04-26T01:02:40;7.90;61.40
8436;DHT22;4255;48.730;9.156;2023-04-26T01:05:06;7.90;88.30
8436;DHT22;4255;48.730;9.156;2023-04-26T01:07:34;7.90;90.20
8436;DHT22;4255;48.730;9.156;2023-04-26T01:10:01;7.90;92.00
8436;DHT22;4255;48.730;9.156;2023-04-26T01:12:29;7.80;88.80
8436;DHT22;4255;48.730;9.156;2023-04-26T01:14:56;7.90;92.60
8436;DHT22;4255;48.730;9.156;2023-04-26T01:17:21;7.90;96.90
8436;DHT22;4255;48.730;9.156;2023-04-26T01:19:51;7.90;94.50
8436;DHT22;4255;48.730;9.156;2023-04-26T01:22:17;8.00;96.10
8436;DHT22;4255;48.730;9.156;2023-04-26T01:24:44;7.80;94.70
8436;DHT22;4255;48.730;9.156;2023-04-26T01:27:11;7.70;99.90
8436;DHT22;4255;48.730;9.156;2023-04-26T01:29:38;7.60;99.90
8436;DHT22;4255;48.730;9.156;2023-04-26T01:32:04;7.70;99.90
8436;DHT22;4255;48.730;9.156;2023-04-26T01:34:30;7.70;95.60
8436;DHT22;4255;48.730;9.156;2023-04-26T01:36:57;7.70;80.70
8436;DHT22;4255;48.730;9.156;2023-04-26T01:39:23;7.60;73.10
8436;DHT22;4255;48.730;9.156;2023-04-26T01:41:48;7.60;71.00
8436;DHT22;4255;48.730;9.156;2023-04-26T01:44:14;7.50;85.60
8436;DHT22;4255;48.730;9.156;2023-04-26T01:46:40;7.40;67.60
8436;DHT22;4255;48.730;9.156;2023-04-26T01:49:06;7.30;72.20
8436;DHT22;4255;48.730;9.156;2023-04-26T01:51:31;7.20;75.80
8436;DHT22;4255;48.730;9.156;2023-04-26T01:53:58;7.10;86.30
8436;DHT22;4255;48.730;9.156;2023-04-26T01:56:24;7.20;94.70
8436;DHT22;4255;48.730;9.156;2023-04-26T01:58:49;7.10;90.40
8436;DHT22;4255;48.730;9.156;2023-04-26T02:01:15;7.20;95.90
8436;DHT22;4255;48.730;9.156;2023-04-26T02:03:41;7.30;94.50
8436;DHT22;4255;48.730;9.156;2023-04-26T02:06:07;7.30;99.80
8436;DHT22;4255;48.730;9.156;2023-04-26T02:08:33;7.30;91.20
8436;DHT22;4255;48.730;9.156;2023-04-26T02:10:58;7.30;97.10
8436;DHT22;4255;48.730;9.156;2023-04-26T02:13:24;7.20;90.80
8436;DHT22;4255;48.730;9.156;2023-04-26T02:15:50;7.00;94.30
8436;DHT22;4255;48.730;9.156;2023-04-26T02:18:16;7.10;98.60
8436;DHT22;4255;48.730;9.156;2023-04-26T02:20:43;7.10;97.20
8436;DHT22;4255;48.730;9.156;2023-04-26T02:23:09;7.30;94.50
8436;DHT22;4255;48.730;9.156;2023-04-26T02:25:35;7.20;94.30
8436;DHT22;4255;48.730;9.156;2023-04-26T02:28:02;7.10;99.90
8436;DHT22;4255;48.730;9.156;2023-04-26T02:30:28;7.10;99.90
8436;DHT22;4255;48.730;9.156;2023-04-26T02:32:54;7.30;99.90
8436;DHT22;4255;48.730;9.156;2023-04-26T02:35:19;7.30;99.90
8436;DHT22;4255;48.730;9.156;2023-04-26T02:37:45;7.40;99.90
8436;DHT22;4255;48.730;9.156;2023-04-26T02:40:16;7.50;99.90
8436;DHT22;4255;48.730;9.156;2023-04-26T02:42:42;7.60;93.70
8436;DHT22;4255;48.730;9.156;2023-04-26T02:45:08;7.60;90.70
8436;DHT22;4255;48.730;9.156;2023-04-26T02:47:33;7.60;93.90
8436;DHT22;4255;48.730;9.156;2023-04-26T02:50:02;7.60;92.50
8436;DHT22;4255;48.730;9.156;2023-04-26T02:52:28;7.60;92.30
8436;DHT22;4255;48.730;9.156;2023-04-26T02:54:53;7.60;92.80
8436;DHT22;4255;48.730;9.156;2023-04-26T02:57:19;7.70;93.20
8436;DHT22;4255;48.730;9.156;2023-04-26T02:59:45;7.70;92.40
8436;DHT22;4255;48.730;9.156;2023-04-26T03:02:10;7.70;99.70
8436;DHT22;4255;48.730;9.156;2023-04-26T03:04:36;7.80;99.90
8436;DHT22;4255;48.730;9.156;2023-04-26T03:07:03;7.70;99.90
8436;DHT22;4255;48.730;9.156;2023-04-26T03:09:29;7.70;99.90
8436;DHT22;4255;48.730;9.156;2023-04-26T03:11:55;7.70;99.90
8436;DHT22;4255;48.730;9.156;2023-04-26T03:14:20;7.70;99.90
8436;DHT22;4255;48.730;9.156;2023-04-26T03:16:46;7.70;99.90
8436;DHT22;4255;48.730;9.156;2023-04-26T03:19:13;7.60;99.90
8436;DHT22;4255;48.730;9.156;2023-04-26T03:21:39;7.60;99.90
8436;DHT22;4255;48.730;9.156;2023-04-26T03:24:05;7.60;99.90
8436;DHT22;4255;48.730;9.156;2023-04-26T03:26:30;7.60;99.90
8436;DHT22;4255;48.730;9.156;2023-04-26T03:28:56;7.60;99.90
8436;DHT22;4255;48.730;9.156;2023-04-26T03:31:22;7.50;99.90
8436;DHT22;4255;48.730;9.156;2023-04-26T03:33:48;7.50;99.90
8436;DHT22;4255;48.730;9.156;2023-04-26T03:36:14;7.50;99.90
8436;DHT22;4255;48.730;9.156;2023-04-26T03:38:40;7.40;99.90
8436;DHT22;4255;48.730;9.156;2023-04-26T03:41:07;7.40;99.90
8436;DHT22;4255;48.730;9.156;2023-04-26T03:43:33;7.50;99.90
8436;DHT22;4255;48.730;9.156;2023-04-26T03:45:59;7.50;99.90
8436;DHT22;4255;48.730;9.156;2023-04-26T03:48:25;7.40;99.90
8436;DHT22;4255;48.730;9.156;2023-04-26T03:50:52;7.40;99.90
8436;DHT22;4255;48.730;9.156;2023-04-26T03:53:17;7.40;99.90
8436;DHT22;4255;48.730;9.156;2023-04-26T03:55:43;7.30;99.90
8436;DHT22;4255;48.730;9.156;2023-04-26T03:58:09;7.30;99.90
8436;DHT22;4255;48.730;9.156;2023-04-26T04:00:38;7.10;99.90
8436;DHT22;4255;48.730;9.156;2023-04-26T04:03:05;7.00;99.90
8436;DHT22;4255;48.730;9.156;2023-04-26T04:05:31;7.00;99.90
8436;DHT22;4255;48.730;9.156;2023-04-26T04:07:57;6.90;99.90
8436;DHT22;4255;48.730;9.156;2023-04-26T04:10:23;6.90;99.90
8436;DHT22;4255;48.730;9.156;2023-04-26T04:12:49;6.90;99.90
8436;DHT22;4255;48.730;9.156;2023-04-26T04:15:15;6.80;99.90
8436;DHT22;4255;48.730;9.156;2023-04-26T04:17:41;6.70;99.90
8436;DHT22;4255;48.730;9.156;2023-04-26T04:20:07;6.70;99.90
8436;DHT22;4255;48.730;9.156;2023-04-26T04:22:33;6.80;99.90
8436;DHT22;4255;48.730;9.156;2023-04-26T04:24:59;6.80;99.90
8436;DHT22;4255;48.730;9.156;2023-04-26T04:27:25;7.00;99.90
8436;DHT22;4255;48.730;9.156;2023-04-26T04:29:51;6.90;99.90
8436;DHT22;4255;48.730;9.156;2023-04-26T04:32:18;6.80;99.90
8436;DHT22;4255;48.730;9.156;2023-04-26T04:34:44;6.90;99.90
8436;DHT22;4255;48.730;9.156;2023-04-26T04:37:10;6.90;99.90
8436;DHT22;4255;48.730;9.156;2023-04-26T04:39:36;7.00;99.90
8436;DHT22;4255;48.730;9.156;2023-04-26T04:42:02;7.00;99.90
8436;DHT22;4255;48.730;9.156;2023-04-26T04:44:27;7.00;99.90
8436;DHT22;4255;48.730;9.156;2023-04-26T04:46:53;7.00;99.90
8436;DHT22;4255;48.730;9.156;2023-04-26T04:49:19;7.10;99.90
8436;DHT22;4255;48.730;9.156;2023-04-26T04:51:45;7.20;99.90
8436;DHT22;4255;48.730;9.156;2023-04-26T04:54:19;7.20;99.90
8436;DHT22;4255;48.730;9.156;2023-04-26T04:56:45;7.00;99.90
8436;DHT22;4255;48.730;9.156;2023-04-26T04:59:11;7.10;99.90
8436;DHT22;4255;48.730;9.156;2023-04-26T05:01:37;7.10;99.90
8436;DHT22;4255;48.730;9.156;2023-04-26T05:04:03;7.10;99.90
8436;DHT22;4255;48.730;9.156;2023-04-26T05:06:29;7.20;99.90
8436;DHT22;4255;48.730;9.156;2023-04-26T05:08:59;7.30;99.90
8436;DHT22;4255;48.730;9.156;2023-04-26T05:11:26;7.40;99.90
8436;DHT22;4255;48.730;9.156;2023-04-26T05:13:51;7.50;99.90
8436;DHT22;4255;48.730;9.156;2023-04-26T05:16:17;7.60;99.90
8436;DHT22;4255;48.730;9.156;2023-04-26T05:18:43;7.80;99.90
8436;DHT22;4255;48.730;9.156;2023-04-26T05:21:08;8.00;99.90
8436;DHT22;4255;48.730;9.156;2023-04-26T05:23:34;8.20;99.90
8436;DHT22;4255;48.730;9.156;2023-04-26T05:26:02;8.30;99.90
8436;DHT22;4255;48.730;9.156;2023-04-26T05:28:29;8.30;99.90
8436;DHT22;4255;48.730;9.156;2023-04-26T05:30:54;8.40;99.90
8436;DHT22;4255;48.730;9.156;2023-04-26T05:33:20;8.40;99.90
8436;DHT22;4255;48.730;9.156;2023-04-26T05:35:46;8.50;99.90
8436;DHT22;4255;48.730;9.156;2023-04-26T05:38:11;8.60;99.90
8436;DHT22;4255;48.730;9.156;2023-04-26T05:40:37;8.60;99.90
8436;DHT22;4255;48.730;9.156;2023-04-26T05:43:03;8.60;99.90
8436;DHT22;4255;48.730;9.156;2023-04-26T05:45:28;8.70;99.90
8436;DHT22;4255;48.730;9.156;2023-04-26T05:47:54;8.60;99.90
8436;DHT22;4255;48.730;9.156;2023-04-26T05:50:20;8.50;99.90
8436;DHT22;4255;48.730;9.156;2023-04-26T05:52:45;8.60;99.90
8436;DHT22;4255;48.730;9.156;2023-04-26T05:55:11;8.50;99.90
8436;DHT22;4255;48.730;9.156;2023-04-26T05:57:38;8.50;99.90
8436;DHT22;4255;48.730;9.156;2023-04-26T06:00:04;8.60;99.90
8436;DHT22;4255;48.730;9.156;2023-04-26T06:02:30;8.40;99.90
8436;DHT22;4255;48.730;9.156;2023-04-26T06:04:56;8.60;99.90
8436;DHT22;4255;48.730;9.156;2023-04-26T06:07:22;8.50;99.90
8436;DHT22;4255;48.730;9.156;2023-04-26T06:09:47;8.20;99.90
8436;DHT22;4255;48.730;9.156;2023-04-26T06:12:13;8.30;99.90
8436;DHT22;4255;48.730;9.156;2023-04-26T06:14:39;8.40;99.90
8436;DHT22;4255;48.730;9.156;2023-04-26T06:17:04;8.50;99.90
8436;DHT22;4255;48.730;9.156;2023-04-26T06:19:30;8.70;99.90
8436;DHT22;4255;48.730;9.156;2023-04-26T06:21:55;8.90;99.90
8436;DHT22;4255;48.730;9.156;2023-04-26T06:24:22;9.10;99.90
8436;DHT22;4255;48.730;9.156;2023-04-26T06:26:49;8.90;99.90
8436;DHT22;4255;48.730;9.156;2023-04-26T06:29:14;9.20;95.20
8436;DHT22;4255;48.730;9.156;2023-04-26T06:31:40;9.30;97.70
8436;DHT22;4255;48.730;9.156;2023-04-26T06:34:06;9.20;69.30
8436;DHT22;4255;48.730;9.156;2023-04-26T06:36:31;9.10;75.80
8436;DHT22;4255;48.730;9.156;2023-04-26T06:38:57;9.00;61.40
8436;DHT22;4255;48.730;9.156;2023-04-26T06:41:23;9.20;69.40
8436;DHT22;4255;48.730;9.156;2023-04-26T06:43:49;9.40;42.10
8436;DHT22;4255;48.730;9.156;2023-04-26T06:46:14;9.50;27.10
8436;DHT22;4255;48.730;9.156;2023-04-26T06:48:40;9.60;1.00
8436;DHT22;4255;48.730;9.156;2023-04-26T06:51:06;9.60;1.00
8436;DHT22;4255;48.730;9.156;2023-04-26T06:53:33;9.80;1.00
8436;DHT22;4255;48.730;9.156;2023-04-26T06:55:59;9.70;1.00
8436;DHT22;4255;48.730;9.156;2023-04-26T06:58:24;9.70;1.00
8436;DHT22;4255;48.730;9.156;2023-04-26T07:00:50;10.00;1.00
8436;DHT22;4255;48.730;9.156;2023-04-26T07:03:16;10.20;1.00
8436;DHT22;4255;48.730;9.156;2023-04-26T07:05:41;10.40;1.00
8436;DHT22;4255;48.730;9.156;2023-04-26T07:08:07;10.40;1.00
8436;DHT22;4255;48.730;9.156;2023-04-26T07:10:32;10.10;1.00
8436;DHT22;4255;48.730;9.156;2023-04-26T07:12:59;10.40;1.00
8436;DHT22;4255;48.730;9.156;2023-04-26T07:15:25;10.20;1.00
8436;DHT22;4255;48.730;9.156;2023-04-26T07:17:50;10.20;1.00
8436;DHT22;4255;48.730;9.156;2023-04-26T07:20:16;10.30;1.00
8436;DHT22;4255;48.730;9.156;2023-04-26T07:22:45;10.70;1.00
8436;DHT22;4255;48.730;9.156;2023-04-26T07:25:10;11.00;1.00
8436;DHT22;4255;48.730;9.156;2023-04-26T07:27:36;11.20;99.90
8436;DHT22;4255;48.730;9.156;2023-04-26T07:30:02;11.40;1.00
8436;DHT22;4255;48.730;9.156;2023-04-26T07:32:29;11.40;99.90
8436;DHT22;4255;48.730;9.156;2023-04-26T07:34:55;11.60;1.00
8436;DHT22;4255;48.730;9.156;2023-04-26T07:37:20;11.60;1.00
8436;DHT22;4255;48.730;9.156;2023-04-26T07:39:46;11.70;1.00
8436;DHT22;4255;48.730;9.156;2023-04-26T07:42:12;11.70;99.90
8436;DHT22;4255;48.730;9.156;2023-04-26T07:44:37;11.80;1.00
8436;DHT22;4255;48.730;9.156;2023-04-26T07:47:03;12.10;99.90
8436;DHT22;4255;48.730;9.156;2023-04-26T07:49:29;12.40;99.90
8436;DHT22;4255;48.730;9.156;2023-04-26T07:51:54;12.80;99.90
8436;DHT22;4255;48.730;9.156;2023-04-26T07:54:22;12.70;99.90
8436;DHT22;4255;48.730;9.156;2023-04-26T07:56:48;12.40;1.00
8436;DHT22;4255;48.730;9.156;2023-04-26T07:59:13;12.30;99.90
8436;DHT22;4255;48.730;9.156;2023-04-26T08:01:39;12.50;99.90
8436;DHT22;4255;48.730;9.156;2023-04-26T08:04:04;12.60;1.00
8436;DHT22;4255;48.730;9.156;2023-04-26T08:06:30;12.80;1.00
8436;DHT22;4255;48.730;9.156;2023-04-26T08:08:56;13.00;1.00
8436;DHT22;4255;48.730;9.156;2023-04-26T08:11:21;13.00;1.00
8436;DHT22;4255;48.730;9.156;2023-04-26T08:13:47;13.30;1.00
8436;DHT22;4255;48.730;9.156;2023-04-26T08:16:13;13.20;99.90
8436;DHT22;4255;48.730;9.156;2023-04-26T08:18:38;13.00;1.00
8436;DHT22;4255;48.730;9.156;2023-04-26T08:21:04;13.40;99.90
8436;DHT22;4255;48.730;9.156;2023-04-26T08:23:34;13.40;99.90
8436;DHT22;4255;48.730;9.156;2023-04-26T08:26:03;13.30;1.00
8436;DHT22;4255;48.730;9.156;2023-04-26T08:28:28;13.20;99.90
8436;DHT22;4255;48.730;9.156;2023-04-26T08:30:54;13.40;1.00
8436;DHT22;4255;48.730;9.156;2023-04-26T08:33:20;13.40;1.00
8436;DHT22;4255;48.730;9.156;2023-04-26T08:35:45;13.60;99.90
8436;DHT22;4255;48.730;9.156;2023-04-26T08:38:11;13.80;99.90
8436;DHT22;4255;48.730;9.156;2023-04-26T08:40:37;13.70;99.90
8436;DHT22;4255;48.730;9.156;2023-04-26T08:43:03;14.00;1.00
8436;DHT22;4255;48.730;9.156;2023-04-26T08:45:30;14.30;99.90
8436;DHT22;4255;48.730;9.156;2023-04-26T08:48:03;14.30;99.90
8436;DHT22;4255;48.730;9.156;2023-04-26T08:50:30;13.70;99.90
8436;DHT22;4255;48.730;9.156;2023-04-26T08:52:57;13.10;99.90
8436;DHT22;4255;48.730;9.156;2023-04-26T08:55:24;12.90;1.00
8436;DHT22;4255;48.730;9.156;2023-04-26T08:57:50;12.80;1.00
8436;DHT22;4255;48.730;9.156;2023-04-26T09:00:16;12.00;1.00
8436;DHT22;4255;48.730;9.156;2023-04-26T09:02:49;11.70;1.00
8436;DHT22;4255;48.730;9.156;2023-04-26T09:05:15;11.40;99.90
8436;DHT22;4255;48.730;9.156;2023-04-26T09:07:44;11.60;99.90
8436;DHT22;4255;48.730;9.156;2023-04-26T09:10:11;11.80;99.90
8436;DHT22;4255;48.730;9.156;2023-04-26T09:12:37;11.90;1.00
8436;DHT22;4255;48.730;9.156;2023-04-26T09:15:04;11.90;1.00
8436;DHT22;4255;48.730;9.156;2023-04-26T09:17:36;12.00;25.90
8436;DHT22;4255;48.730;9.156;2023-04-26T09:20:24;12.20;73.50
8436;DHT22;4255;48.730;9.156;2023-04-26T09:23:04;12.40;1.00
8436;DHT22;4255;48.730;9.156;2023-04-26T09:25:31;12.10;1.00
8436;DHT22;4255;48.730;9.156;2023-04-26T09:27:58;12.30;99.90
8436;DHT22;4255;48.730;9.156;2023-04-26T09:30:24;12.40;1.00
8436;DHT22;4255;48.730;9.156;2023-04-26T09:33:00;12.40;1.00
8436;DHT22;4255;48.730;9.156;2023-04-26T09:35:41;12.50;99.90
8436;DHT22;4255;48.730;9.156;2023-04-26T09:38:14;12.40;1.00
8436;DHT22;4255;48.730;9.156;2023-04-26T09:40:43;12.70;99.90
8436;DHT22;4255;48.730;9.156;2023-04-26T09:43:19;12.70;38.60
8436;DHT22;4255;48.730;9.156;2023-04-26T09:45:53;12.90;1.00
8436;DHT22;4255;48.730;9.156;2023-04-26T09:48:23;13.00;4.90
8436;DHT22;4255;48.730;9.156;2023-04-26T09:50:57;12.90;1.00
8436;DHT22;4255;48.730;9.156;2023-04-26T09:53:32;12.70;1.00
8436;DHT22;4255;48.730;9.156;2023-04-26T09:56:17;12.60;99.90
8436;DHT22;4255;48.730;9.156;2023-04-26T10:01:14;13.10;99.90
8436;DHT22;4255;48.730;9.156;2023-04-26T10:03:44;13.30;1.00
8436;DHT22;4255;48.730;9.156;2023-04-26T10:06:12;13.60;1.00
8436;DHT22;4255;48.730;9.156;2023-04-26T10:08:37;14.00;1.00
8436;DHT22;4255;48.730;9.156;2023-04-26T10:11:04;14.10;99.90
8436;DHT22;4255;48.730;9.156;2023-04-26T10:13:31;14.20;99.90
8436;DHT22;4255;48.730;9.156;2023-04-26T10:15:59;14.40;99.90
8436;DHT22;4255;48.730;9.156;2023-04-26T10:18:25;14.60;99.90
8436;DHT22;4255;48.730;9.156;2023-04-26T10:20:54;14.40;99.90
8436;DHT22;4255;48.730;9.156;2023-04-26T10:23:22;14.10;99.90
8436;DHT22;4255;48.730;9.156;2023-04-26T10:25:51;13.70;1.00
8436;DHT22;4255;48.730;9.156;2023-04-26T10:28:19;13.60;99.90
8436;DHT22;4255;48.730;9.156;2023-04-26T10:31:03;13.40;99.90
8436;DHT22;4255;48.730;9.156;2023-04-26T10:33:29;13.00;99.90
8436;DHT22;4255;48.730;9.156;2023-04-26T10:36:07;13.10;99.90
8436;DHT22;4255;48.730;9.156;2023-04-26T10:38:35;13.60;99.90
8436;DHT22;4255;48.730;9.156;2023-04-26T10:41:26;14.00;80.30
8436;DHT22;4255;48.730;9.156;2023-04-26T10:43:53;14.20;1.00
8436;DHT22;4255;48.730;9.156;2023-04-26T10:46:39;14.10;1.00
8436;DHT22;4255;48.730;9.156;2023-04-26T10:49:12;13.80;1.00
8436;DHT22;4255;48.730;9.156;2023-04-26T10:51:39;13.80;1.00
8436;DHT22;4255;48.730;9.156;2023-04-26T10:54:05;13.80;1.00
8436;DHT22;4255;48.730;9.156;2023-04-26T10:59:08;14.30;1.00
8436;DHT22;4255;48.730;9.156;2023-04-26T11:01:34;14.30;1.00
8436;DHT22;4255;48.730;9.156;2023-04-26T11:06:26;14.30;1.00
8436;DHT22;4255;48.730;9.156;2023-04-26T11:08:53;14.50;1.00
8436;DHT22;4255;48.730;9.156;2023-04-26T11:11:19;14.60;1.00
8436;DHT22;4255;48.730;9.156;2023-04-26T11:13:50;14.80;1.00
8436;DHT22;4255;48.730;9.156;2023-04-26T11:16:16;14.90;1.00
8436;DHT22;4255;48.730;9.156;2023-04-26T11:18:44;15.40;1.00
8436;DHT22;4255;48.730;9.156;2023-04-26T11:21:11;14.90;1.00
8436;DHT22;4255;48.730;9.156;2023-04-26T11:23:37;14.70;1.00
8436;DHT22;4255;48.730;9.156;2023-04-26T11:26:05;14.60;1.00
8436;DHT22;4255;48.730;9.156;2023-04-26T11:28:32;14.80;1.00
8436;DHT22;4255;48.730;9.156;2023-04-26T11:30:58;14.90;1.00
8436;DHT22;4255;48.730;9.156;2023-04-26T11:33:24;15.10;1.00
8436;DHT22;4255;48.730;9.156;2023-04-26T11:35:51;15.20;1.00
8436;DHT22;4255;48.730;9.156;2023-04-26T11:38:17;15.10;1.00
8436;DHT22;4255;48.730;9.156;2023-04-26T11:40:58;15.10;1.00
8436;DHT22;4255;48.730;9.156;2023-04-26T11:43:33;14.80;1.00
8436;DHT22;4255;48.730;9.156;2023-04-26T11:46:00;15.20;1.00
8436;DHT22;4255;48.730;9.156;2023-04-26T11:48:27;15.60;1.00
8436;DHT22;4255;48.730;9.156;2023-04-26T11:50:53;16.00;1.00
8436;DHT22;4255;48.730;9.156;2023-04-26T11:53:19;16.50;1.00
8436;DHT22;4255;48.730;9.156;2023-04-26T11:55:44;16.60;1.00
8436;DHT22;4255;48.730;9.156;2023-04-26T11:58:13;16.70;1.00
8436;DHT22;4255;48.730;9.156;2023-04-26T12:00:59;16.70;1.00
8436;DHT22;4255;48.730;9.156;2023-04-26T12:03:33;17.00;1.00
8436;DHT22;4255;48.730;9.156;2023-04-26T12:06:02;17.10;1.00
8436;DHT22;4255;48.730;9.156;2023-04-26T12:08:28;16.90;1.00
8436;DHT22;4255;48.730;9.156;2023-04-26T12:11:01;17.00;1.00
8436;DHT22;4255;48.730;9.156;2023-04-26T12:13:28;16.80;1.00
8436;DHT22;4255;48.730;9.156;2023-04-26T12:15:54;16.70;1.00
8436;DHT22;4255;48.730;9.156;2023-04-26T12:18:20;16.50;1.00
8436;DHT22;4255;48.730;9.156;2023-04-26T12:20:47;16.20;1.00
8436;DHT22;4255;48.730;9.156;2023-04-26T12:23:14;15.90;1.00
8436;DHT22;4255;48.730;9.156;2023-04-26T12:25:50;15.80;1.00
8436;DHT22;4255;48.730;9.156;2023-04-26T12:28:16;15.80;1.00
8436;DHT22;4255;48.730;9.156;2023-04-26T12:30:42;15.90;1.00
8436;DHT22;4255;48.730;9.156;2023-04-26T12:33:07;16.10;1.00
8436;DHT22;4255;48.730;9.156;2023-04-26T12:35:33;16.20;1.00
8436;DHT22;4255;48.730;9.156;2023-04-26T12:37:59;16.30;1.00
8436;DHT22;4255;48.730;9.156;2023-04-26T12:40:26;16.60;1.00
8436;DHT22;4255;48.730;9.156;2023-04-26T12:42:53;16.60;1.00
8436;DHT22;4255;48.730;9.156;2023-04-26T12:45:21;16.50;1.00
8436;DHT22;4255;48.730;9.156;2023-04-26T12:47:47;16.70;1.00
8436;DHT22;4255;48.730;9.156;2023-04-26T12:50:14;17.10;1.00
8436;DHT22;4255;48.730;9.156;2023-04-26T12:52:41;17.30;1.00
8436;DHT22;4255;48.730;9.156;2023-04-26T12:55:11;17.10;1.00
8436;DHT22;4255;48.730;9.156;2023-04-26T12:57:38;16.80;1.00
8436;DHT22;4255;48.730;9.156;2023-04-26T13:00:05;16.40;1.00
8436;DHT22;4255;48.730;9.156;2023-04-26T13:02:32;16.40;1.00
8436;DHT22;4255;48.730;9.156;2023-04-26T13:04:59;16.60;1.00
8436;DHT22;4255;48.730;9.156;2023-04-26T13:07:26;16.70;1.00
8436;DHT22;4255;48.730;9.156;2023-04-26T13:09:52;16.80;1.00
8436;DHT22;4255;48.730;9.156;2023-04-26T13:12:17;16.90;1.00
8436;DHT22;4255;48.730;9.156;2023-04-26T13:14:43;17.20;1.00
8436;DHT22;4255;48.730;9.156;2023-04-26T13:17:09;17.30;1.00
8436;DHT22;4255;48.730;9.156;2023-04-26T13:19:35;17.20;1.00
8436;DHT22;4255;48.730;9.156;2023-04-26T13:22:04;16.70;1.00
8436;DHT22;4255;48.730;9.156;2023-04-26T13:24:32;16.30;1.00
8436;DHT22;4255;48.730;9.156;2023-04-26T13:26:58;15.90;1.00
8436;DHT22;4255;48.730;9.156;2023-04-26T13:29:24;15.30;1.00
8436;DHT22;4255;48.730;9.156;2023-04-26T13:31:50;15.10;1.00
8436;DHT22;4255;48.730;9.156;2023-04-26T13:34:15;15.00;1.00
8436;DHT22;4255;48.730;9.156;2023-04-26T13:36:41;15.30;1.00
8436;DHT22;4255;48.730;9.156;2023-04-26T13:39:07;15.50;1.00
8436;DHT22;4255;48.730;9.156;2023-04-26T13:41:34;15.60;1.00
8436;DHT22;4255;48.730;9.156;2023-04-26T13:44:03;15.90;1.00
8436;DHT22;4255;48.730;9.156;2023-04-26T13:46:30;16.10;1.00
8436;DHT22;4255;48.730;9.156;2023-04-26T13:48:56;16.50;1.00
8436;DHT22;4255;48.730;9.156;2023-04-26T13:51:22;16.80;1.00
8436;DHT22;4255;48.730;9.156;2023-04-26T13:53:49;16.50;1.00
8436;DHT22;4255;48.730;9.156;2023-04-26T13:56:15;16.40;1.00
8436;DHT22;4255;48.730;9.156;2023-04-26T13:58:42;16.30;1.00
8436;DHT22;4255;48.730;9.156;2023-04-26T14:01:08;16.10;1.00
8436;DHT22;4255;48.730;9.156;2023-04-26T14:03:34;16.10;1.00
8436;DHT22;4255;48.730;9.156;2023-04-26T14:06:00;15.80;1.00
8436;DHT22;4255;48.730;9.156;2023-04-26T14:08:28;15.80;1.00
8436;DHT22;4255;48.730;9.156;2023-04-26T14:10:54;16.00;1.00
8436;DHT22;4255;48.730;9.156;2023-04-26T14:13:19;16.00;1.00
8436;DHT22;4255;48.730;9.156;2023-04-26T14:15:45;16.30;1.00
8436;DHT22;4255;48.730;9.156;2023-04-26T14:18:11;16.40;1.00
8436;DHT22;4255;48.730;9.156;2023-04-26T14:20:37;16.30;1.00
8436;DHT22;4255;48.730;9.156;2023-04-26T14:23:03;16.30;1.00
8436;DHT22;4255;48.730;9.156;2023-04-26T14:25:28;16.40;1.00
8436;DHT22;4255;48.730;9.156;2023-04-26T14:27:54;16.30;1.00
8436;DHT22;4255;48.730;9.156;2023-04-26T14:30:20;16.50;1.00
8436;DHT22;4255;48.730;9.156;2023-04-26T14:32:45;16.20;1.00
8436;DHT22;4255;48.730;9.156;2023-04-26T14:35:11;16.30;1.00
8436;DHT22;4255;48.730;9.156;2023-04-26T14:37:37;16.70;1.00
8436;DHT22;4255;48.730;9.156;2023-04-26T14:40:03;16.90;1.00
8436;DHT22;4255;48.730;9.156;2023-04-26T14:42:29;16.90;1.00
8436;DHT22;4255;48.730;9.156;2023-04-26T14:44:57;16.60;1.00
8436;DHT22;4255;48.730;9.156;2023-04-26T14:47:23;16.50;1.00
8436;DHT22;4255;48.730;9.156;2023-04-26T14:49:49;16.40;1.00
8436;DHT22;4255;48.730;9.156;2023-04-26T14:52:14;15.90;1.00
8436;DHT22;4255;48.730;9.156;2023-04-26T14:54:40;15.90;1.00
8436;DHT22;4255;48.730;9.156;2023-04-26T14:57:06;16.10;1.00
8436;DHT22;4255;48.730;9.156;2023-04-26T14:59:32;16.00;1.00
8436;DHT22;4255;48.730;9.156;2023-04-26T15:01:58;15.90;1.00
8436;DHT22;4255;48.730;9.156;2023-04-26T15:04:23;16.10;1.00
8436;DHT22;4255;48.730;9.156;2023-04-26T15:06:49;16.20;1.00
8436;DHT22;4255;48.730;9.156;2023-04-26T15:09:14;16.10;1.00
8436;DHT22;4255;48.730;9.156;2023-04-26T15:11:41;16.40;1.00
8436;DHT22;4255;48.730;9.156;2023-04-26T15:14:06;16.60;1.00
8436;DHT22;4255;48.730;9.156;2023-04-26T15:16:32;16.20;1.00
8436;DHT22;4255;48.730;9.156;2023-04-26T15:18:57;15.90;1.00
8436;DHT22;4255;48.730;9.156;2023-04-26T15:21:23;15.60;1.00
8436;DHT22;4255;48.730;9.156;2023-04-26T15:23:49;15.50;1.00
8436;DHT22;4255;48.730;9.156;2023-04-26T15:26:15;15.30;1.00
8436;DHT22;4255;48.730;9.156;2023-04-26T15:28:40;15.20;1.00
8436;DHT22;4255;48.730;9.156;2023-04-26T15:31:09;15.10;1.00
8436;DHT22;4255;48.730;9.156;2023-04-26T15:33:35;15.10;1.00
8436;DHT22;4255;48.730;9.156;2023-04-26T15:36:01;14.90;1.00
8436;DHT22;4255;48.730;9.156;2023-04-26T15:38:27;14.90;1.00
8436;DHT22;4255;48.730;9.156;2023-04-26T15:40:52;15.10;1.00
8436;DHT22;4255;48.730;9.156;2023-04-26T15:43:18;15.10;1.00
8436;DHT22;4255;48.730;9.156;2023-04-26T15:45:44;14.80;1.00
8436;DHT22;4255;48.730;9.156;2023-04-26T15:48:11;14.50;1.00
8436;DHT22;4255;48.730;9.156;2023-04-26T15:50:36;14.30;1.00
8436;DHT22;4255;48.730;9.156;2023-04-26T15:53:02;14.30;1.00
8436;DHT22;4255;48.730;9.156;2023-04-26T15:55:30;14.30;1.00
8436;DHT22;4255;48.730;9.156;2023-04-26T15:57:56;14.60;1.00
8436;DHT22;4255;48.730;9.156;2023-04-26T16:00:22;14.80;1.00
8436;DHT22;4255;48.730;9.156;2023-04-26T16:02:47;15.00;1.00
8436;DHT22;4255;48.730;9.156;2023-04-26T16:05:13;14.90;1.00
8436;DHT22;4255;48.730;9.156;2023-04-26T16:07:38;14.80;1.00
8436;DHT22;4255;48.730;9.156;2023-04-26T16:10:08;15.10;1.00
8436;DHT22;4255;48.730;9.156;2023-04-26T16:12:34;15.20;1.00
8436;DHT22;4255;48.730;9.156;2023-04-26T16:15:08;15.30;1.00
8436;DHT22;4255;48.730;9.156;2023-04-26T16:17:34;15.30;1.00
8436;DHT22;4255;48.730;9.156;2023-04-26T16:20:01;15.40;1.00
8436;DHT22;4255;48.730;9.156;2023-04-26T16:22:28;15.60;1.00